sensor_id;sensor_type;location;lat;lon;timestamp;P1;durP1;ratioP1;P2;durP2;ratioP2
17151;SDS011;8691;50.828;4.700;2022-09-25T00:02:18;8.27;;;5.00;;
17151;SDS011;8691;50.828;4.700;2022-09-25T00:04:45;8.30;;;5.40;;
17151;SDS011;8691;50.828;4.700;2022-09-25T00:07:12;8.00;;;5.00;;
17151;SDS011;8691;50.828;4.700;2022-09-25T00:09:39;10.05;;;4.70;;
17151;SDS011;8691;50.828;4.700;2022-09-25T00:12:05;8.23;;;4.73;;
17151;SDS011;8691;50.828;4.700;2022-09-25T00:14:32;7.83;;;4.60;;
17151;SDS011;8691;50.828;4.700;2022-09-25T00:16:59;8.60;;;4.27;;
17151;SDS011;8691;50.828;4.700;2022-09-25T00:19:26;9.20;;;4.40;;
17151;SDS011;8691;50.828;4.700;2022-09-25T00:22:11;9.07;;;3.80;;
17151;SDS011;8691;50.828;4.700;2022-09-25T00:24:38;10.05;;;4.50;;
17151;SDS011;8691;50.828;4.700;2022-09-25T00:27:05;7.78;;;3.90;;
17151;SDS011;8691;50.828;4.700;2022-09-25T00:29:32;8.62;;;3.92;;
17151;SDS011;8691;50.828;4.700;2022-09-25T00:31:59;9.63;;;3.40;;
17151;SDS011;8691;50.828;4.700;2022-09-25T00:34:25;6.65;;;3.75;;
17151;SDS011;8691;50.828;4.700;2022-09-25T00:36:52;9.95;;;4.00;;
17151;SDS011;8691;50.828;4.700;2022-09-25T00:39:19;6.55;;;3.60;;
17151;SDS011;8691;50.828;4.700;2022-09-25T00:41:46;9.05;;;3.80;;
17151;SDS011;8691;50.828;4.700;2022-09-25T00:47:21;8.00;;;3.83;;
17151;SDS011;8691;50.828;4.700;2022-09-25T00:49:44;8.07;;;3.60;;
17151;SDS011;8691;50.828;4.700;2022-09-25T00:52:11;7.30;;;3.30;;
17151;SDS011;8691;50.828;4.700;2022-09-25T00:54:46;6.00;;;3.30;;
17151;SDS011;8691;50.828;4.700;2022-09-25T00:57:15;6.88;;;3.40;;
17151;SDS011;8691;50.828;4.700;2022-09-25T00:59:45;5.53;;;3.03;;
17151;SDS011;8691;50.828;4.700;2022-09-25T01:02:13;6.35;;;3.03;;
17151;SDS011;8691;50.828;4.700;2022-09-25T01:04:37;7.90;;;2.93;;
17151;SDS011;8691;50.828;4.700;2022-09-25T01:07:04;5.80;;;2.85;;
17151;SDS011;8691;50.828;4.700;2022-09-25T01:09:31;7.23;;;2.90;;
17151;SDS011;8691;50.828;4.700;2022-09-25T01:11:58;7.27;;;2.70;;
17151;SDS011;8691;50.828;4.700;2022-09-25T01:14:25;9.00;;;3.22;;
17151;SDS011;8691;50.828;4.700;2022-09-25T01:16:54;8.98;;;3.15;;
17151;SDS011;8691;50.828;4.700;2022-09-25T01:19:30;9.57;;;3.12;;
17151;SDS011;8691;50.828;4.700;2022-09-25T01:21:53;7.70;;;2.97;;
17151;SDS011;8691;50.828;4.700;2022-09-25T01:29:48;6.53;;;3.00;;
17151;SDS011;8691;50.828;4.700;2022-09-25T01:32:32;7.85;;;3.03;;
17151;SDS011;8691;50.828;4.700;2022-09-25T01:37:48;7.65;;;2.97;;
17151;SDS011;8691;50.828;4.700;2022-09-25T01:40:27;6.43;;;3.10;;
17151;SDS011;8691;50.828;4.700;2022-09-25T01:42:56;6.60;;;3.05;;
17151;SDS011;8691;50.828;4.700;2022-09-25T01:45:32;6.65;;;2.90;;
17151;SDS011;8691;50.828;4.700;2022-09-25T01:48:03;7.40;;;3.10;;
17151;SDS011;8691;50.828;4.700;2022-09-25T01:50:40;6.60;;;3.00;;
17151;SDS011;8691;50.828;4.700;2022-09-25T01:53:17;8.32;;;3.03;;
17151;SDS011;8691;50.828;4.700;2022-09-25T01:55:50;9.07;;;3.00;;
17151;SDS011;8691;50.828;4.700;2022-09-25T02:00:48;7.65;;;3.15;;
17151;SDS011;8691;50.828;4.700;2022-09-25T02:03:13;10.75;;;3.53;;
17151;SDS011;8691;50.828;4.700;2022-09-25T02:05:45;7.50;;;3.00;;
17151;SDS011;8691;50.828;4.700;2022-09-25T02:08:17;8.00;;;3.28;;
17151;SDS011;8691;50.828;4.700;2022-09-25T02:10:42;9.67;;;2.60;;
17151;SDS011;8691;50.828;4.700;2022-09-25T02:13:10;8.43;;;3.33;;
17151;SDS011;8691;50.828;4.700;2022-09-25T02:15:42;7.33;;;3.20;;
17151;SDS011;8691;50.828;4.700;2022-09-25T02:18:10;8.38;;;3.00;;
17151;SDS011;8691;50.828;4.700;2022-09-25T02:21:04;9.20;;;3.38;;
17151;SDS011;8691;50.828;4.700;2022-09-25T02:23:51;6.93;;;3.65;;
17151;SDS011;8691;50.828;4.700;2022-09-25T02:26:28;8.53;;;3.50;;
17151;SDS011;8691;50.828;4.700;2022-09-25T02:28:44;6.97;;;3.30;;
17151;SDS011;8691;50.828;4.700;2022-09-25T02:31:11;7.37;;;3.40;;
17151;SDS011;8691;50.828;4.700;2022-09-25T02:33:38;7.15;;;3.38;;
17151;SDS011;8691;50.828;4.700;2022-09-25T02:36:05;8.90;;;3.62;;
17151;SDS011;8691;50.828;4.700;2022-09-25T02:38:32;7.97;;;3.53;;
17151;SDS011;8691;50.828;4.700;2022-09-25T02:41:03;9.97;;;3.70;;
17151;SDS011;8691;50.828;4.700;2022-09-25T02:48:37;10.68;;;3.70;;
17151;SDS011;8691;50.828;4.700;2022-09-25T02:51:28;8.40;;;3.13;;
17151;SDS011;8691;50.828;4.700;2022-09-25T02:54:00;6.68;;;3.92;;
17151;SDS011;8691;50.828;4.700;2022-09-25T02:56:41;7.37;;;3.90;;
17151;SDS011;8691;50.828;4.700;2022-09-25T02:59:07;6.10;;;3.60;;
17151;SDS011;8691;50.828;4.700;2022-09-25T03:01:33;7.18;;;4.10;;
17151;SDS011;8691;50.828;4.700;2022-09-25T03:04:00;11.00;;;4.22;;
17151;SDS011;8691;50.828;4.700;2022-09-25T03:06:27;9.40;;;3.65;;
17151;SDS011;8691;50.828;4.700;2022-09-25T03:08:54;10.75;;;4.35;;
17151;SDS011;8691;50.828;4.700;2022-09-25T03:11:21;8.52;;;3.85;;
17151;SDS011;8691;50.828;4.700;2022-09-25T03:13:58;9.15;;;3.90;;
17151;SDS011;8691;50.828;4.700;2022-09-25T03:19:13;11.75;;;4.07;;
17151;SDS011;8691;50.828;4.700;2022-09-25T03:21:39;9.15;;;4.18;;
17151;SDS011;8691;50.828;4.700;2022-09-25T03:24:06;6.43;;;3.50;;
17151;SDS011;8691;50.828;4.700;2022-09-25T03:26:33;7.20;;;3.95;;
17151;SDS011;8691;50.828;4.700;2022-09-25T03:28:59;7.97;;;3.47;;
17151;SDS011;8691;50.828;4.700;2022-09-25T03:31:27;8.05;;;3.90;;
17151;SDS011;8691;50.828;4.700;2022-09-25T03:33:53;13.87;;;3.80;;
17151;SDS011;8691;50.828;4.700;2022-09-25T03:36:21;9.07;;;4.32;;
17151;SDS011;8691;50.828;4.700;2022-09-25T03:38:50;11.12;;;4.55;;
17151;SDS011;8691;50.828;4.700;2022-09-25T03:41:17;10.17;;;4.20;;
17151;SDS011;8691;50.828;4.700;2022-09-25T03:43:43;6.68;;;4.28;;
17151;SDS011;8691;50.828;4.700;2022-09-25T03:46:11;8.93;;;4.40;;
17151;SDS011;8691;50.828;4.700;2022-09-25T03:48:37;8.50;;;4.53;;
17151;SDS011;8691;50.828;4.700;2022-09-25T03:51:04;9.37;;;4.60;;
17151;SDS011;8691;50.828;4.700;2022-09-25T03:53:31;9.57;;;4.40;;
17151;SDS011;8691;50.828;4.700;2022-09-25T03:55:58;7.85;;;4.55;;
17151;SDS011;8691;50.828;4.700;2022-09-25T03:58:24;8.38;;;4.22;;
17151;SDS011;8691;50.828;4.700;2022-09-25T04:00:51;8.35;;;4.47;;
17151;SDS011;8691;50.828;4.700;2022-09-25T04:03:18;8.02;;;4.70;;
17151;SDS011;8691;50.828;4.700;2022-09-25T04:05:45;8.62;;;4.78;;
17151;SDS011;8691;50.828;4.700;2022-09-25T04:08:13;9.00;;;4.10;;
17151;SDS011;8691;50.828;4.700;2022-09-25T04:10:40;8.60;;;4.80;;
17151;SDS011;8691;50.828;4.700;2022-09-25T04:13:07;8.35;;;4.82;;
17151;SDS011;8691;50.828;4.700;2022-09-25T04:15:33;12.23;;;4.70;;
17151;SDS011;8691;50.828;4.700;2022-09-25T04:18:00;10.45;;;5.40;;
17151;SDS011;8691;50.828;4.700;2022-09-25T04:20:27;7.88;;;4.65;;
17151;SDS011;8691;50.828;4.700;2022-09-25T04:22:55;11.62;;;5.55;;
17151;SDS011;8691;50.828;4.700;2022-09-25T04:25:21;9.32;;;5.22;;
17151;SDS011;8691;50.828;4.700;2022-09-25T04:27:48;9.03;;;5.33;;
17151;SDS011;8691;50.828;4.700;2022-09-25T04:30:15;11.00;;;5.67;;
17151;SDS011;8691;50.828;4.700;2022-09-25T04:32:42;10.63;;;5.10;;
17151;SDS011;8691;50.828;4.700;2022-09-25T04:35:26;13.23;;;5.00;;
17151;SDS011;8691;50.828;4.700;2022-09-25T04:37:53;8.50;;;5.70;;
17151;SDS011;8691;50.828;4.700;2022-09-25T04:40:20;11.40;;;6.03;;
17151;SDS011;8691;50.828;4.700;2022-09-25T04:42:47;9.70;;;5.90;;
17151;SDS011;8691;50.828;4.700;2022-09-25T04:45:14;9.73;;;6.47;;
17151;SDS011;8691;50.828;4.700;2022-09-25T04:47:42;11.45;;;6.32;;
17151;SDS011;8691;50.828;4.700;2022-09-25T04:50:08;7.63;;;5.13;;
17151;SDS011;8691;50.828;4.700;2022-09-25T04:52:35;10.33;;;6.40;;
17151;SDS011;8691;50.828;4.700;2022-09-25T04:55:02;10.27;;;5.80;;
17151;SDS011;8691;50.828;4.700;2022-09-25T04:57:29;11.07;;;6.90;;
17151;SDS011;8691;50.828;4.700;2022-09-25T04:59:55;11.12;;;6.90;;
17151;SDS011;8691;50.828;4.700;2022-09-25T05:02:26;9.02;;;6.57;;
17151;SDS011;8691;50.828;4.700;2022-09-25T05:04:52;11.18;;;6.88;;
17151;SDS011;8691;50.828;4.700;2022-09-25T05:07:19;7.00;;;5.53;;
17151;SDS011;8691;50.828;4.700;2022-09-25T05:09:46;9.25;;;6.80;;
17151;SDS011;8691;50.828;4.700;2022-09-25T05:12:13;12.10;;;7.43;;
17151;SDS011;8691;50.828;4.700;2022-09-25T05:14:40;10.15;;;6.95;;
17151;SDS011;8691;50.828;4.700;2022-09-25T05:17:08;9.90;;;6.95;;
17151;SDS011;8691;50.828;4.700;2022-09-25T05:19:35;8.23;;;6.60;;
17151;SDS011;8691;50.828;4.700;2022-09-25T05:22:02;11.87;;;6.87;;
17151;SDS011;8691;50.828;4.700;2022-09-25T05:24:28;10.03;;;6.30;;
17151;SDS011;8691;50.828;4.700;2022-09-25T05:26:56;12.45;;;7.30;;
17151;SDS011;8691;50.828;4.700;2022-09-25T05:29:22;10.85;;;6.95;;
17151;SDS011;8691;50.828;4.700;2022-09-25T05:31:49;9.07;;;6.80;;
17151;SDS011;8691;50.828;4.700;2022-09-25T05:34:17;9.77;;;6.72;;
17151;SDS011;8691;50.828;4.700;2022-09-25T05:36:44;10.03;;;5.97;;
17151;SDS011;8691;50.828;4.700;2022-09-25T05:39:12;10.07;;;6.97;;
17151;SDS011;8691;50.828;4.700;2022-09-25T05:41:39;7.37;;;5.47;;
17151;SDS011;8691;50.828;4.700;2022-09-25T05:44:06;7.65;;;6.43;;
17151;SDS011;8691;50.828;4.700;2022-09-25T05:46:33;9.80;;;7.18;;
17151;SDS011;8691;50.828;4.700;2022-09-25T05:49:00;7.68;;;6.53;;
17151;SDS011;8691;50.828;4.700;2022-09-25T05:51:27;9.83;;;6.93;;
17151;SDS011;8691;50.828;4.700;2022-09-25T05:53:53;9.27;;;6.57;;
17151;SDS011;8691;50.828;4.700;2022-09-25T05:56:20;9.97;;;6.77;;
17151;SDS011;8691;50.828;4.700;2022-09-25T05:58:47;10.47;;;6.77;;
17151;SDS011;8691;50.828;4.700;2022-09-25T06:01:14;8.57;;;6.43;;
17151;SDS011;8691;50.828;4.700;2022-09-25T06:03:41;9.75;;;6.57;;
17151;SDS011;8691;50.828;4.700;2022-09-25T06:06:09;9.87;;;6.20;;
17151;SDS011;8691;50.828;4.700;2022-09-25T06:08:36;7.40;;;6.43;;
17151;SDS011;8691;50.828;4.700;2022-09-25T06:11:03;10.87;;;9.50;;
17151;SDS011;8691;50.828;4.700;2022-09-25T06:13:30;12.62;;;11.43;;
17151;SDS011;8691;50.828;4.700;2022-09-25T06:15:56;14.27;;;12.98;;
17151;SDS011;8691;50.828;4.700;2022-09-25T06:18:23;18.88;;;17.08;;
17151;SDS011;8691;50.828;4.700;2022-09-25T06:20:50;11.20;;;9.98;;
17151;SDS011;8691;50.828;4.700;2022-09-25T06:23:18;12.55;;;8.73;;
17151;SDS011;8691;50.828;4.700;2022-09-25T06:25:45;8.37;;;7.03;;
17151;SDS011;8691;50.828;4.700;2022-09-25T06:28:12;7.90;;;5.90;;
17151;SDS011;8691;50.828;4.700;2022-09-25T06:30:38;8.23;;;5.90;;
17151;SDS011;8691;50.828;4.700;2022-09-25T06:33:08;8.60;;;6.47;;
17151;SDS011;8691;50.828;4.700;2022-09-25T06:35:34;7.97;;;6.27;;
17151;SDS011;8691;50.828;4.700;2022-09-25T06:38:01;7.60;;;6.05;;
17151;SDS011;8691;50.828;4.700;2022-09-25T06:40:28;8.80;;;5.93;;
17151;SDS011;8691;50.828;4.700;2022-09-25T06:42:55;8.00;;;5.93;;
17151;SDS011;8691;50.828;4.700;2022-09-25T06:45:22;7.28;;;6.38;;
17151;SDS011;8691;50.828;4.700;2022-09-25T06:47:49;7.60;;;5.97;;
17151;SDS011;8691;50.828;4.700;2022-09-25T06:50:16;9.30;;;6.10;;
17151;SDS011;8691;50.828;4.700;2022-09-25T06:52:43;8.67;;;6.10;;
17151;SDS011;8691;50.828;4.700;2022-09-25T06:55:10;5.77;;;5.13;;
17151;SDS011;8691;50.828;4.700;2022-09-25T06:57:37;8.62;;;6.38;;
17151;SDS011;8691;50.828;4.700;2022-09-25T07:00:04;8.03;;;6.23;;
17151;SDS011;8691;50.828;4.700;2022-09-25T07:02:31;7.40;;;6.00;;
17151;SDS011;8691;50.828;4.700;2022-09-25T07:05:15;7.00;;;5.23;;
17151;SDS011;8691;50.828;4.700;2022-09-25T07:07:42;8.20;;;6.05;;
17151;SDS011;8691;50.828;4.700;2022-09-25T07:10:09;6.75;;;5.28;;
17151;SDS011;8691;50.828;4.700;2022-09-25T07:12:36;6.38;;;4.40;;
17151;SDS011;8691;50.828;4.700;2022-09-25T07:15:03;4.10;;;3.70;;
17151;SDS011;8691;50.828;4.700;2022-09-25T07:17:29;3.57;;;3.13;;
17151;SDS011;8691;50.828;4.700;2022-09-25T07:19:56;3.78;;;3.20;;
17151;SDS011;8691;50.828;4.700;2022-09-25T07:22:23;5.00;;;2.90;;
17151;SDS011;8691;50.828;4.700;2022-09-25T07:24:50;3.83;;;2.87;;
17151;SDS011;8691;50.828;4.700;2022-09-25T07:27:17;5.78;;;2.90;;
17151;SDS011;8691;50.828;4.700;2022-09-25T07:29:44;4.20;;;2.40;;
17151;SDS011;8691;50.828;4.700;2022-09-25T07:32:12;4.10;;;2.50;;
17151;SDS011;8691;50.828;4.700;2022-09-25T07:34:38;4.10;;;2.30;;
17151;SDS011;8691;50.828;4.700;2022-09-25T07:37:06;5.25;;;2.50;;
17151;SDS011;8691;50.828;4.700;2022-09-25T07:39:33;4.53;;;2.30;;
17151;SDS011;8691;50.828;4.700;2022-09-25T07:42:00;3.53;;;2.27;;
17151;SDS011;8691;50.828;4.700;2022-09-25T07:44:26;3.23;;;2.07;;
17151;SDS011;8691;50.828;4.700;2022-09-25T07:46:53;3.90;;;2.00;;
17151;SDS011;8691;50.828;4.700;2022-09-25T07:49:20;4.85;;;2.30;;
17151;SDS011;8691;50.828;4.700;2022-09-25T07:51:48;4.32;;;1.83;;
17151;SDS011;8691;50.828;4.700;2022-09-25T07:54:14;4.00;;;2.37;;
17151;SDS011;8691;50.828;4.700;2022-09-25T07:56:41;4.97;;;2.15;;
17151;SDS011;8691;50.828;4.700;2022-09-25T07:59:08;4.97;;;2.10;;
17151;SDS011;8691;50.828;4.700;2022-09-25T08:01:35;3.47;;;1.73;;
17151;SDS011;8691;50.828;4.700;2022-09-25T08:04:02;4.80;;;2.00;;
17151;SDS011;8691;50.828;4.700;2022-09-25T08:06:32;3.03;;;1.58;;
17151;SDS011;8691;50.828;4.700;2022-09-25T08:08:57;4.27;;;1.83;;
17151;SDS011;8691;50.828;4.700;2022-09-25T08:11:23;4.47;;;1.75;;
17151;SDS011;8691;50.828;4.700;2022-09-25T08:13:50;4.77;;;1.80;;
17151;SDS011;8691;50.828;4.700;2022-09-25T08:16:17;3.08;;;1.70;;
17151;SDS011;8691;50.828;4.700;2022-09-25T08:18:44;4.87;;;1.70;;
17151;SDS011;8691;50.828;4.700;2022-09-25T08:21:11;3.70;;;1.73;;
17151;SDS011;8691;50.828;4.700;2022-09-25T08:23:39;3.85;;;1.40;;
17151;SDS011;8691;50.828;4.700;2022-09-25T08:26:06;3.22;;;1.60;;
17151;SDS011;8691;50.828;4.700;2022-09-25T08:28:33;5.03;;;1.70;;
17151;SDS011;8691;50.828;4.700;2022-09-25T08:31:00;4.20;;;1.38;;
17151;SDS011;8691;50.828;4.700;2022-09-25T08:33:26;3.93;;;1.57;;
17151;SDS011;8691;50.828;4.700;2022-09-25T08:35:54;4.65;;;1.38;;
17151;SDS011;8691;50.828;4.700;2022-09-25T08:38:22;4.03;;;1.20;;
17151;SDS011;8691;50.828;4.700;2022-09-25T08:40:50;4.28;;;1.45;;
17151;SDS011;8691;50.828;4.700;2022-09-25T08:43:19;4.53;;;1.30;;
17151;SDS011;8691;50.828;4.700;2022-09-25T08:45:43;4.73;;;1.40;;
17151;SDS011;8691;50.828;4.700;2022-09-25T08:48:39;2.50;;;1.27;;
17151;SDS011;8691;50.828;4.700;2022-09-25T08:51:20;4.00;;;1.30;;
17151;SDS011;8691;50.828;4.700;2022-09-25T08:53:47;4.03;;;1.50;;
17151;SDS011;8691;50.828;4.700;2022-09-25T08:56:14;4.17;;;1.20;;
17151;SDS011;8691;50.828;4.700;2022-09-25T09:01:41;3.33;;;1.20;;
17151;SDS011;8691;50.828;4.700;2022-09-25T09:04:06;4.23;;;1.20;;
17151;SDS011;8691;50.828;4.700;2022-09-25T09:06:33;2.60;;;0.93;;
17151;SDS011;8691;50.828;4.700;2022-09-25T09:09:02;3.53;;;1.30;;
17151;SDS011;8691;50.828;4.700;2022-09-25T09:11:29;4.62;;;1.65;;
17151;SDS011;8691;50.828;4.700;2022-09-25T09:13:55;4.65;;;1.20;;
17151;SDS011;8691;50.828;4.700;2022-09-25T09:16:35;3.25;;;1.38;;
17151;SDS011;8691;50.828;4.700;2022-09-25T09:19:04;3.00;;;1.13;;
17151;SDS011;8691;50.828;4.700;2022-09-25T09:21:34;3.58;;;1.10;;
17151;SDS011;8691;50.828;4.700;2022-09-25T09:29:31;2.80;;;1.25;;
17151;SDS011;8691;50.828;4.700;2022-09-25T09:32:21;5.45;;;1.30;;
17151;SDS011;8691;50.828;4.700;2022-09-25T09:37:48;3.53;;;1.10;;
17151;SDS011;8691;50.828;4.700;2022-09-25T09:43:03;3.83;;;1.30;;
17151;SDS011;8691;50.828;4.700;2022-09-25T09:51:39;3.60;;;1.10;;
17151;SDS011;8691;50.828;4.700;2022-09-25T09:54:12;2.80;;;1.00;;
17151;SDS011;8691;50.828;4.700;2022-09-25T09:56:36;2.92;;;1.00;;
17151;SDS011;8691;50.828;4.700;2022-09-25T09:59:26;3.20;;;0.90;;
17151;SDS011;8691;50.828;4.700;2022-09-25T10:01:31;3.83;;;1.10;;
17151;SDS011;8691;50.828;4.700;2022-09-25T10:04:05;3.23;;;0.93;;
17151;SDS011;8691;50.828;4.700;2022-09-25T10:06:29;3.00;;;0.97;;
17151;SDS011;8691;50.828;4.700;2022-09-25T10:08:56;3.17;;;1.00;;
17151;SDS011;8691;50.828;4.700;2022-09-25T10:11:23;2.50;;;0.80;;
17151;SDS011;8691;50.828;4.700;2022-09-25T10:13:51;2.67;;;0.90;;
17151;SDS011;8691;50.828;4.700;2022-09-25T10:16:19;3.28;;;1.00;;
17151;SDS011;8691;50.828;4.700;2022-09-25T10:18:46;4.13;;;1.00;;
17151;SDS011;8691;50.828;4.700;2022-09-25T10:21:16;4.03;;;0.90;;
17151;SDS011;8691;50.828;4.700;2022-09-25T10:23:51;4.73;;;0.90;;
17151;SDS011;8691;50.828;4.700;2022-09-25T10:28:53;4.00;;;1.00;;
17151;SDS011;8691;50.828;4.700;2022-09-25T10:31:20;2.30;;;0.77;;
17151;SDS011;8691;50.828;4.700;2022-09-25T10:34:21;2.75;;;0.80;;
17151;SDS011;8691;50.828;4.700;2022-09-25T10:36:29;3.23;;;1.03;;
17151;SDS011;8691;50.828;4.700;2022-09-25T10:38:55;3.33;;;1.00;;
17151;SDS011;8691;50.828;4.700;2022-09-25T10:41:22;2.37;;;0.67;;
17151;SDS011;8691;50.828;4.700;2022-09-25T10:43:53;3.03;;;0.98;;
17151;SDS011;8691;50.828;4.700;2022-09-25T10:46:31;3.47;;;1.00;;
17151;SDS011;8691;50.828;4.700;2022-09-25T10:49:19;1.60;;;0.70;;
17151;SDS011;8691;50.828;4.700;2022-09-25T10:52:05;3.03;;;0.67;;
17151;SDS011;8691;50.828;4.700;2022-09-25T10:54:30;3.28;;;1.00;;
17151;SDS011;8691;50.828;4.700;2022-09-25T10:56:58;3.60;;;1.00;;
17151;SDS011;8691;50.828;4.700;2022-09-25T10:59:25;2.23;;;0.93;;
17151;SDS011;8691;50.828;4.700;2022-09-25T11:01:53;2.50;;;1.02;;
17151;SDS011;8691;50.828;4.700;2022-09-25T11:04:24;2.83;;;0.90;;
17151;SDS011;8691;50.828;4.700;2022-09-25T11:06:51;3.38;;;1.02;;
17151;SDS011;8691;50.828;4.700;2022-09-25T11:09:24;2.63;;;0.90;;
17151;SDS011;8691;50.828;4.700;2022-09-25T11:11:51;2.97;;;0.90;;
17151;SDS011;8691;50.828;4.700;2022-09-25T11:14:19;2.27;;;0.70;;
17151;SDS011;8691;50.828;4.700;2022-09-25T11:16:52;2.50;;;1.00;;
17151;SDS011;8691;50.828;4.700;2022-09-25T11:24:32;2.80;;;0.80;;
17151;SDS011;8691;50.828;4.700;2022-09-25T11:27:02;2.27;;;0.83;;
17151;SDS011;8691;50.828;4.700;2022-09-25T11:32:03;3.07;;;0.90;;
17151;SDS011;8691;50.828;4.700;2022-09-25T11:34:32;2.77;;;0.70;;
17151;SDS011;8691;50.828;4.700;2022-09-25T11:37:17;2.50;;;0.90;;
17151;SDS011;8691;50.828;4.700;2022-09-25T11:39:43;3.30;;;0.80;;
17151;SDS011;8691;50.828;4.700;2022-09-25T11:43:12;2.17;;;0.90;;
17151;SDS011;8691;50.828;4.700;2022-09-25T11:45:16;2.97;;;0.98;;
17151;SDS011;8691;50.828;4.700;2022-09-25T11:47:55;2.90;;;0.83;;
17151;SDS011;8691;50.828;4.700;2022-09-25T11:50:19;2.88;;;0.80;;
17151;SDS011;8691;50.828;4.700;2022-09-25T12:06:06;2.45;;;1.00;;
17151;SDS011;8691;50.828;4.700;2022-09-25T12:11:55;6.40;;;3.93;;
17151;SDS011;8691;50.828;4.700;2022-09-25T12:17:01;3.85;;;2.80;;
17151;SDS011;8691;50.828;4.700;2022-09-25T12:19:43;6.13;;;5.53;;
17151;SDS011;8691;50.828;4.700;2022-09-25T12:22:26;3.85;;;1.55;;
17151;SDS011;8691;50.828;4.700;2022-09-25T12:24:55;2.97;;;1.20;;
17151;SDS011;8691;50.828;4.700;2022-09-25T12:27:32;5.45;;;1.10;;
17151;SDS011;8691;50.828;4.700;2022-09-25T12:30:12;3.20;;;0.80;;
17151;SDS011;8691;50.828;4.700;2022-09-25T12:35:39;2.50;;;0.90;;
17151;SDS011;8691;50.828;4.700;2022-09-25T12:38:22;5.53;;;3.47;;
17151;SDS011;8691;50.828;4.700;2022-09-25T12:40:55;2.27;;;0.70;;
17151;SDS011;8691;50.828;4.700;2022-09-25T12:43:29;2.08;;;0.75;;
17151;SDS011;8691;50.828;4.700;2022-09-25T12:46:01;2.40;;;0.83;;
17151;SDS011;8691;50.828;4.700;2022-09-25T12:48:48;3.47;;;1.50;;
17151;SDS011;8691;50.828;4.700;2022-09-25T12:54:02;2.27;;;0.80;;
17151;SDS011;8691;50.828;4.700;2022-09-25T12:56:32;2.80;;;0.80;;
17151;SDS011;8691;50.828;4.700;2022-09-25T13:04:40;2.00;;;0.80;;
17151;SDS011;8691;50.828;4.700;2022-09-25T13:07:08;1.60;;;0.60;;
17151;SDS011;8691;50.828;4.700;2022-09-25T13:09:41;2.93;;;1.00;;
17151;SDS011;8691;50.828;4.700;2022-09-25T13:12:09;3.58;;;1.00;;
17151;SDS011;8691;50.828;4.700;2022-09-25T13:14:37;2.70;;;1.40;;
17151;SDS011;8691;50.828;4.700;2022-09-25T13:17:02;2.77;;;1.30;;
17151;SDS011;8691;50.828;4.700;2022-09-25T13:19:30;3.80;;;1.02;;
17151;SDS011;8691;50.828;4.700;2022-09-25T13:22:00;2.42;;;1.00;;
17151;SDS011;8691;50.828;4.700;2022-09-25T13:24:27;3.60;;;1.10;;
17151;SDS011;8691;50.828;4.700;2022-09-25T13:26:54;3.17;;;0.90;;
17151;SDS011;8691;50.828;4.700;2022-09-25T13:29:26;2.33;;;1.00;;
17151;SDS011;8691;50.828;4.700;2022-09-25T13:31:49;2.97;;;1.00;;
17151;SDS011;8691;50.828;4.700;2022-09-25T13:34:17;2.77;;;1.07;;
17151;SDS011;8691;50.828;4.700;2022-09-25T13:44:57;3.13;;;0.93;;
17151;SDS011;8691;50.828;4.700;2022-09-25T14:00:27;2.60;;;1.20;;
17151;SDS011;8691;50.828;4.700;2022-09-25T14:02:53;3.12;;;1.35;;
17151;SDS011;8691;50.828;4.700;2022-09-25T14:05:20;4.30;;;1.10;;
17151;SDS011;8691;50.828;4.700;2022-09-25T14:07:47;2.08;;;0.82;;
17151;SDS011;8691;50.828;4.700;2022-09-25T14:10:14;3.20;;;1.20;;
17151;SDS011;8691;50.828;4.700;2022-09-25T14:12:42;2.60;;;0.90;;
17151;SDS011;8691;50.828;4.700;2022-09-25T14:15:33;3.00;;;0.90;;
17151;SDS011;8691;50.828;4.700;2022-09-25T14:17:55;4.57;;;1.20;;
17151;SDS011;8691;50.828;4.700;2022-09-25T14:22:59;5.10;;;1.40;;
17151;SDS011;8691;50.828;4.700;2022-09-25T14:25:28;3.40;;;1.00;;
17151;SDS011;8691;50.828;4.700;2022-09-25T14:27:55;3.03;;;1.20;;
17151;SDS011;8691;50.828;4.700;2022-09-25T14:30:22;2.78;;;0.90;;
17151;SDS011;8691;50.828;4.700;2022-09-25T14:33:00;3.17;;;1.00;;
17151;SDS011;8691;50.828;4.700;2022-09-25T14:38:32;3.60;;;0.93;;
17151;SDS011;8691;50.828;4.700;2022-09-25T14:41:04;3.90;;;0.80;;
17151;SDS011;8691;50.828;4.700;2022-09-25T14:46:12;1.97;;;0.80;;
17151;SDS011;8691;50.828;4.700;2022-09-25T14:48:40;1.80;;;0.73;;
17151;SDS011;8691;50.828;4.700;2022-09-25T14:51:06;3.07;;;0.90;;
17151;SDS011;8691;50.828;4.700;2022-09-25T14:53:33;1.97;;;0.90;;
17151;SDS011;8691;50.828;4.700;2022-09-25T14:55:59;2.60;;;0.90;;
17151;SDS011;8691;50.828;4.700;2022-09-25T14:58:26;3.00;;;1.10;;
17151;SDS011;8691;50.828;4.700;2022-09-25T15:00:54;3.07;;;1.00;;
17151;SDS011;8691;50.828;4.700;2022-09-25T15:03:24;1.53;;;0.73;;
17151;SDS011;8691;50.828;4.700;2022-09-25T15:05:50;2.65;;;0.90;;
17151;SDS011;8691;50.828;4.700;2022-09-25T15:08:22;3.20;;;0.75;;
17151;SDS011;8691;50.828;4.700;2022-09-25T15:11:14;2.47;;;0.85;;
17151;SDS011;8691;50.828;4.700;2022-09-25T15:13:40;3.20;;;1.20;;
17151;SDS011;8691;50.828;4.700;2022-09-25T15:16:22;2.35;;;0.80;;
17151;SDS011;8691;50.828;4.700;2022-09-25T15:19:06;1.77;;;0.70;;
17151;SDS011;8691;50.828;4.700;2022-09-25T15:21:33;2.33;;;0.90;;
17151;SDS011;8691;50.828;4.700;2022-09-25T15:24:04;4.90;;;1.00;;
17151;SDS011;8691;50.828;4.700;2022-09-25T15:26:32;3.80;;;1.07;;
17151;SDS011;8691;50.828;4.700;2022-09-25T15:28:59;2.30;;;0.90;;
17151;SDS011;8691;50.828;4.700;2022-09-25T15:31:33;4.00;;;1.20;;
17151;SDS011;8691;50.828;4.700;2022-09-25T15:34:03;2.75;;;1.40;;
17151;SDS011;8691;50.828;4.700;2022-09-25T15:36:30;2.93;;;0.90;;
17151;SDS011;8691;50.828;4.700;2022-09-25T15:38:57;3.03;;;0.97;;
17151;SDS011;8691;50.828;4.700;2022-09-25T15:41:23;2.25;;;0.75;;
17151;SDS011;8691;50.828;4.700;2022-09-25T15:43:51;2.45;;;1.10;;
17151;SDS011;8691;50.828;4.700;2022-09-25T15:46:33;1.70;;;0.80;;
17151;SDS011;8691;50.828;4.700;2022-09-25T15:49:00;4.23;;;1.00;;
17151;SDS011;8691;50.828;4.700;2022-09-25T15:51:27;2.85;;;1.10;;
17151;SDS011;8691;50.828;4.700;2022-09-25T15:53:54;2.33;;;0.90;;
17151;SDS011;8691;50.828;4.700;2022-09-25T15:56:21;2.40;;;0.90;;
17151;SDS011;8691;50.828;4.700;2022-09-25T15:58:49;3.10;;;1.20;;
17151;SDS011;8691;50.828;4.700;2022-09-25T16:01:20;2.40;;;1.00;;
17151;SDS011;8691;50.828;4.700;2022-09-25T16:04:01;6.87;;;1.77;;
17151;SDS011;8691;50.828;4.700;2022-09-25T16:06:46;2.33;;;0.97;;
17151;SDS011;8691;50.828;4.700;2022-09-25T16:12:33;2.20;;;0.90;;
17151;SDS011;8691;50.828;4.700;2022-09-25T16:14:37;2.73;;;0.90;;
17151;SDS011;8691;50.828;4.700;2022-09-25T16:17:03;3.03;;;0.80;;
17151;SDS011;8691;50.828;4.700;2022-09-25T16:19:31;1.90;;;0.90;;
17151;SDS011;8691;50.828;4.700;2022-09-25T16:21:58;3.58;;;0.90;;
17151;SDS011;8691;50.828;4.700;2022-09-25T16:24:27;1.85;;;0.80;;
17151;SDS011;8691;50.828;4.700;2022-09-25T16:29:23;3.55;;;1.27;;
17151;SDS011;8691;50.828;4.700;2022-09-25T16:31:49;2.55;;;0.85;;
17151;SDS011;8691;50.828;4.700;2022-09-25T16:34:20;1.83;;;0.93;;
17151;SDS011;8691;50.828;4.700;2022-09-25T16:36:45;2.03;;;0.80;;
17151;SDS011;8691;50.828;4.700;2022-09-25T16:39:17;2.33;;;0.90;;
17151;SDS011;8691;50.828;4.700;2022-09-25T16:41:46;1.83;;;0.90;;
17151;SDS011;8691;50.828;4.700;2022-09-25T16:44:15;1.73;;;0.90;;
17151;SDS011;8691;50.828;4.700;2022-09-25T16:49:17;3.53;;;1.95;;
17151;SDS011;8691;50.828;4.700;2022-09-25T16:51:47;5.87;;;2.70;;
17151;SDS011;8691;50.828;4.700;2022-09-25T16:54:15;4.45;;;1.90;;
17151;SDS011;8691;50.828;4.700;2022-09-25T16:56:41;2.50;;;1.63;;
17151;SDS011;8691;50.828;4.700;2022-09-25T16:59:15;3.05;;;1.50;;
17151;SDS011;8691;50.828;4.700;2022-09-25T17:01:44;4.60;;;1.20;;
17151;SDS011;8691;50.828;4.700;2022-09-25T17:04:11;2.63;;;1.30;;
17151;SDS011;8691;50.828;4.700;2022-09-25T17:06:37;2.37;;;1.10;;
17151;SDS011;8691;50.828;4.700;2022-09-25T17:09:04;4.60;;;1.30;;
17151;SDS011;8691;50.828;4.700;2022-09-25T17:11:31;2.78;;;1.20;;
17151;SDS011;8691;50.828;4.700;2022-09-25T17:13:58;2.28;;;1.00;;